sensor_id;sensor_type;location;lat;lon;timestamp;pressure;altitude;pressure_sealevel;temperature;humidity
53940;BME280;39850;43.324;21.916;2024-01-11T00:01:57;1005.0;;;-2.8;69.0
53940;BME280;39850;43.324;21.916;2024-01-11T00:06:41;1005.0;;;-2.7;69.0
53940;BME280;39850;43.324;21.916;2024-01-11T00:11:18;1005.0;;;-2.7;69.0
53940;BME280;39850;43.324;21.916;2024-01-11T00:15:54;1005.0;;;-2.7;70.0
53940;BME280;39850;43.324;21.916;2024-01-11T00:20:30;1005.0;;;-2.7;70.0
53940;BME280;39850;43.324;21.916;2024-01-11T00:25:08;1005.0;;;-2.6;71.0
53940;BME280;39850;43.324;21.916;2024-01-11T00:29:45;1005.0;;;-2.6;71.0
53940;BME280;39850;43.324;21.916;2024-01-11T01:06:35;1005.0;;;-3.5;71.0
53940;BME280;39850;43.324;21.916;2024-01-11T01:11:12;1005.0;;;-3.5;71.0
53940;BME280;39850;43.324;21.916;2024-01-11T01:15:49;1005.0;;;-3.6;71.0
53940;BME280;39850;43.324;21.916;2024-01-11T01:20:25;1005.0;;;-3.6;71.0
53940;BME280;39850;43.324;21.916;2024-01-11T01:25:07;1005.0;;;-3.5;71.0
53940;BME280;39850;43.324;21.916;2024-01-11T01:29:43;1005.0;;;-3.5;71.0
53940;BME280;39850;43.324;21.916;2024-01-11T01:34:20;1005.0;;;-3.6;71.0
53940;BME280;39850;43.324;21.916;2024-01-11T01:38:57;1005.0;;;-3.6;71.0
53940;BME280;39850;43.324;21.916;2024-01-11T01:43:33;1005.0;;;-3.6;71.0
53940;BME280;39850;43.324;21.916;2024-01-11T01:48:10;1005.0;;;-3.5;71.0
53940;BME280;39850;43.324;21.916;2024-01-11T01:52:50;1005.0;;;-3.5;71.0
53940;BME280;39850;43.324;21.916;2024-01-11T02:25:20;1004.0;;;-3.5;71.0
53940;BME280;39850;43.324;21.916;2024-01-11T02:29:56;1004.0;;;-3.5;71.0
53940;BME280;39850;43.324;21.916;2024-01-11T02:34:36;1004.0;;;-4.0;71.0
53940;BME280;39850;43.324;21.916;2024-01-11T02:39:22;1004.0;;;-4.0;71.0
53940;BME280;39850;43.324;21.916;2024-01-11T02:44:01;1004.0;;;-4.0;71.0
53940;BME280;39850;43.324;21.916;2024-01-11T02:48:37;1004.0;;;-4.6;72.0
53940;BME280;39850;43.324;21.916;2024-01-11T02:53:14;1004.0;;;-4.6;72.0
53940;BME280;39850;43.324;21.916;2024-01-11T02:57:50;1004.0;;;-4.6;72.0
53940;BME280;39850;43.324;21.916;2024-01-11T03:02:27;1004.0;;;-4.6;72.0
53940;BME280;39850;43.324;21.916;2024-01-11T03:07:04;1004.0;;;-4.6;72.0
53940;BME280;39850;43.324;21.916;2024-01-11T03:11:40;1004.0;;;-4.6;72.0
53940;BME280;39850;43.324;21.916;2024-01-11T03:48:37;1004.0;;;-4.5;71.0
53940;BME280;39850;43.324;21.916;2024-01-11T03:53:14;1004.0;;;-4.5;71.0
53940;BME280;39850;43.324;21.916;2024-01-11T03:57:52;1004.0;;;-4.6;71.0
53940;BME280;39850;43.324;21.916;2024-01-11T04:02:29;1004.0;;;-4.6;71.0
53940;BME280;39850;43.324;21.916;2024-01-11T04:07:06;1004.0;;;-4.6;71.0
53940;BME280;39850;43.324;21.916;2024-01-11T04:11:42;1004.0;;;-4.6;71.0
53940;BME280;39850;43.324;21.916;2024-01-11T04:16:20;1004.0;;;-4.6;70.0
53940;BME280;39850;43.324;21.916;2024-01-11T04:20:57;1004.0;;;-4.6;70.0
53940;BME280;39850;43.324;21.916;2024-01-11T04:25:35;1004.0;;;-4.6;71.0
53940;BME280;39850;43.324;21.916;2024-01-11T04:30:13;1004.0;;;-4.6;71.0
53940;BME280;39850;43.324;21.916;2024-01-11T05:07:04;1004.0;;;-4.5;71.0
53940;BME280;39850;43.324;21.916;2024-01-11T05:11:40;1004.0;;;-4.5;71.0
53940;BME280;39850;43.324;21.916;2024-01-11T05:16:25;1004.0;;;-4.5;71.0
53940;BME280;39850;43.324;21.916;2024-01-11T05:21:03;1004.0;;;-4.5;71.0
53940;BME280;39850;43.324;21.916;2024-01-11T05:25:40;1004.0;;;-4.5;71.0
53940;BME280;39850;43.324;21.916;2024-01-11T05:30:16;1004.0;;;-4.5;71.0
53940;BME280;39850;43.324;21.916;2024-01-11T05:34:53;1004.0;;;-4.5;71.0
53940;BME280;39850;43.324;21.916;2024-01-11T05:39:29;1004.0;;;-4.5;72.0
53940;BME280;39850;43.324;21.916;2024-01-11T05:44:05;1004.0;;;-4.5;72.0
53940;BME280;39850;43.324;21.916;2024-01-11T05:48:43;1004.0;;;-4.5;73.0
53940;BME280;39850;43.324;21.916;2024-01-11T05:53:19;1004.0;;;-4.5;73.0
53940;BME280;39850;43.324;21.916;2024-01-11T06:25:33;1003.0;;;-4.5;71.0
53940;BME280;39850;43.324;21.916;2024-01-11T06:30:14;1003.0;;;-4.5;71.0
53940;BME280;39850;43.324;21.916;2024-01-11T06:34:50;1003.0;;;-4.5;71.0
53940;BME280;39850;43.324;21.916;2024-01-11T06:39:27;1003.0;;;-4.5;71.0
53940;BME280;39850;43.324;21.916;2024-01-11T06:44:04;1003.0;;;-4.5;71.0
53940;BME280;39850;43.324;21.916;2024-01-11T06:48:41;1003.0;;;-4.5;71.0
53940;BME280;39850;43.324;21.916;2024-01-11T06:53:17;1003.0;;;-4.5;71.0
53940;BME280;39850;43.324;21.916;2024-01-11T06:57:54;1003.0;;;-4.5;71.0
53940;BME280;39850;43.324;21.916;2024-01-11T07:02:31;1003.0;;;-4.5;71.0
53940;BME280;39850;43.324;21.916;2024-01-11T07:07:07;1003.0;;;-4.5;71.0
53940;BME280;39850;43.324;21.916;2024-01-11T07:11:44;1003.0;;;-4.5;71.0
53940;BME280;39850;43.324;21.916;2024-01-11T07:57:52;1003.0;;;-3.5;71.0
53940;BME280;39850;43.324;21.916;2024-01-11T08:02:29;1003.0;;;-3.5;71.0
53940;BME280;39850;43.324;21.916;2024-01-11T08:07:05;1003.0;;;-3.6;70.0
53940;BME280;39850;43.324;21.916;2024-01-11T08:11:41;1003.0;;;-3.6;70.0
53940;BME280;39850;43.324;21.916;2024-01-11T08:16:19;1003.0;;;-3.6;70.0
53940;BME280;39850;43.324;21.916;2024-01-11T08:20:55;1003.0;;;-3.6;70.0
53940;BME280;39850;43.324;21.916;2024-01-11T08:25:31;1003.0;;;-3.7;69.0
53940;BME280;39850;43.324;21.916;2024-01-11T08:30:09;1003.0;;;-3.7;69.0
53940;BME280;39850;43.324;21.916;2024-01-11T08:34:45;1003.0;;;-3.7;69.0
53940;BME280;39850;43.324;21.916;2024-01-11T09:16:16;1003.0;;;0.9;60.0
53940;BME280;39850;43.324;21.916;2024-01-11T09:20:53;1003.0;;;0.9;60.0
53940;BME280;39850;43.324;21.916;2024-01-11T09:25:30;1003.0;;;0.9;60.0
53940;BME280;39850;43.324;21.916;2024-01-11T09:30:10;1003.0;;;1.2;59.0
53940;BME280;39850;43.324;21.916;2024-01-11T09:34:47;1003.0;;;1.2;59.0
53940;BME280;39850;43.324;21.916;2024-01-11T09:39:23;1003.0;;;1.2;58.0
53940;BME280;39850;43.324;21.916;2024-01-11T09:44:05;1003.0;;;1.2;58.0
53940;BME280;39850;43.324;21.916;2024-01-11T09:48:50;1003.0;;;1.5;56.0
53940;BME280;39850;43.324;21.916;2024-01-11T09:53:34;1003.0;;;1.5;56.0
53940;BME280;39850;43.324;21.916;2024-01-11T10:26:04;1002.0;;;2.7;54.0
53940;BME280;39850;43.324;21.916;2024-01-11T10:30:40;1002.0;;;2.7;54.0
53940;BME280;39850;43.324;21.916;2024-01-11T10:35:17;1002.0;;;2.7;54.0
53940;BME280;39850;43.324;21.916;2024-01-11T10:40:01;1002.0;;;2.7;54.0
53940;BME280;39850;43.324;21.916;2024-01-11T10:44:54;1002.0;;;2.7;54.0
53940;BME280;39850;43.324;21.916;2024-01-11T10:49:40;1001.0;;;2.7;54.0
53940;BME280;39850;43.324;21.916;2024-01-11T10:54:23;1001.0;;;2.7;54.0
53940;BME280;39850;43.324;21.916;2024-01-11T10:59:03;1001.0;;;2.2;55.0
53940;BME280;39850;43.324;21.916;2024-01-11T11:03:44;1001.0;;;2.2;55.0
53940;BME280;39850;43.324;21.916;2024-01-11T11:08:24;1001.0;;;1.7;56.0
53940;BME280;39850;43.324;21.916;2024-01-11T11:13:01;1001.0;;;1.7;56.0
53940;BME280;39850;43.324;21.916;2024-01-11T11:50:16;1000.0;;;1.6;57.0
53940;BME280;39850;43.324;21.916;2024-01-11T11:54:58;1000.0;;;1.6;57.0
53940;BME280;39850;43.324;21.916;2024-01-11T11:59:37;1000.0;;;2.0;56.0
53940;BME280;39850;43.324;21.916;2024-01-11T12:04:14;1000.0;;;2.0;56.0
53940;BME280;39850;43.324;21.916;2024-01-11T12:08:55;1000.0;;;2.5;56.0
53940;BME280;39850;43.324;21.916;2024-01-11T12:13:33;1000.0;;;2.5;56.0
53940;BME280;39850;43.324;21.916;2024-01-11T12:18:10;1000.0;;;2.6;56.0
53940;BME280;39850;43.324;21.916;2024-01-11T12:22:47;1000.0;;;2.6;56.0
53940;BME280;39850;43.324;21.916;2024-01-11T12:27:24;1000.0;;;2.7;55.0
53940;BME280;39850;43.324;21.916;2024-01-11T12:32:01;1000.0;;;2.7;55.0
53940;BME280;39850;43.324;21.916;2024-01-11T13:09:27;999.0;;;2.7;55.0
53940;BME280;39850;43.324;21.916;2024-01-11T13:14:03;999.0;;;2.7;55.0
53940;BME280;39850;43.324;21.916;2024-01-11T13:18:40;999.0;;;2.7;58.0
53940;BME280;39850;43.324;21.916;2024-01-11T13:23:20;999.0;;;2.7;58.0
53940;BME280;39850;43.324;21.916;2024-01-11T13:27:57;999.0;;;2.7;61.0
53940;BME280;39850;43.324;21.916;2024-01-11T13:32:33;999.0;;;2.7;61.0
53940;BME280;39850;43.324;21.916;2024-01-11T13:37:10;999.0;;;3.8;63.0
53940;BME280;39850;43.324;21.916;2024-01-11T13:41:47;999.0;;;3.8;63.0
53940;BME280;39850;43.324;21.916;2024-01-11T13:46:23;999.0;;;3.8;63.0
53940;BME280;39850;43.324;21.916;2024-01-11T13:50:59;999.0;;;5.0;66.0
53940;BME280;39850;43.324;21.916;2024-01-11T13:55:36;999.0;;;5.0;66.0
53940;BME280;39850;43.324;21.916;2024-01-11T14:27:53;998.0;;;1.7;57.0
53940;BME280;39850;43.324;21.916;2024-01-11T14:32:29;998.0;;;1.7;57.0
53940;BME280;39850;43.324;21.916;2024-01-11T14:37:05;998.0;;;1.5;58.0
53940;BME280;39850;43.324;21.916;2024-01-11T14:41:41;998.0;;;1.5;58.0
53940;BME280;39850;43.324;21.916;2024-01-11T14:46:18;998.0;;;1.5;58.0
53940;BME280;39850;43.324;21.916;2024-01-11T14:50:54;998.0;;;1.3;58.0
53940;BME280;39850;43.324;21.916;2024-01-11T14:55:30;998.0;;;1.3;58.0
53940;BME280;39850;43.324;21.916;2024-01-11T15:00:13;998.0;;;1.0;59.0
53940;BME280;39850;43.324;21.916;2024-01-11T15:04:51;998.0;;;1.0;59.0
53940;BME280;39850;43.324;21.916;2024-01-11T15:09:27;998.0;;;0.8;60.0
53940;BME280;39850;43.324;21.916;2024-01-11T15:14:04;998.0;;;0.8;60.0
53940;BME280;39850;43.324;21.916;2024-01-11T15:51:00;998.0;;;0.8;63.0
53940;BME280;39850;43.324;21.916;2024-01-11T15:55:37;998.0;;;0.8;63.0
53940;BME280;39850;43.324;21.916;2024-01-11T16:00:16;998.0;;;0.8;63.0
53940;BME280;39850;43.324;21.916;2024-01-11T16:04:52;998.0;;;0.8;63.0
53940;BME280;39850;43.324;21.916;2024-01-11T16:09:29;998.0;;;0.8;63.0
53940;BME280;39850;43.324;21.916;2024-01-11T16:14:05;998.0;;;0.8;63.0
53940;BME280;39850;43.324;21.916;2024-01-11T16:18:41;998.0;;;0.9;63.0
53940;BME280;39850;43.324;21.916;2024-01-11T16:23:18;998.0;;;0.9;63.0
53940;BME280;39850;43.324;21.916;2024-01-11T16:27:55;998.0;;;0.9;63.0
53940;BME280;39850;43.324;21.916;2024-01-11T16:32:31;998.0;;;0.9;63.0
53940;BME280;39850;43.324;21.916;2024-01-11T16:37:08;998.0;;;0.9;63.0
53940;BME280;39850;43.324;21.916;2024-01-11T17:18:37;998.0;;;-0.1;65.0
53940;BME280;39850;43.324;21.916;2024-01-11T17:23:14;998.0;;;-0.1;65.0
53940;BME280;39850;43.324;21.916;2024-01-11T17:27:50;998.0;;;0.4;65.0
53940;BME280;39850;43.324;21.916;2024-01-11T17:32:26;998.0;;;0.4;65.0
53940;BME280;39850;43.324;21.916;2024-01-11T17:37:04;998.0;;;0.4;65.0
53940;BME280;39850;43.324;21.916;2024-01-11T17:41:40;998.0;;;0.4;64.0
53940;BME280;39850;43.324;21.916;2024-01-11T17:46:23;998.0;;;0.4;64.0
53940;BME280;39850;43.324;21.916;2024-01-11T17:50:59;998.0;;;0.8;63.0
53940;BME280;39850;43.324;21.916;2024-01-11T17:55:35;998.0;;;0.8;63.0
53940;BME280;39850;43.324;21.916;2024-01-11T18:27:52;998.0;;;0.4;63.0
53940;BME280;39850;43.324;21.916;2024-01-11T18:32:28;998.0;;;0.4;63.0
53940;BME280;39850;43.324;21.916;2024-01-11T18:37:04;998.0;;;0.4;63.0
53940;BME280;39850;43.324;21.916;2024-01-11T18:41:42;998.0;;;-0.3;65.0
53940;BME280;39850;43.324;21.916;2024-01-11T18:46:18;998.0;;;-0.3;65.0
53940;BME280;39850;43.324;21.916;2024-01-11T18:50:55;998.0;;;-1.0;68.0
53940;BME280;39850;43.324;21.916;2024-01-11T18:55:31;998.0;;;-1.0;68.0
53940;BME280;39850;43.324;21.916;2024-01-11T19:00:10;998.0;;;-1.2;68.0
53940;BME280;39850;43.324;21.916;2024-01-11T19:04:47;998.0;;;-1.2;68.0
53940;BME280;39850;43.324;21.916;2024-01-11T19:09:23;998.0;;;-1.5;69.0
53940;BME280;39850;43.324;21.916;2024-01-11T19:13:59;998.0;;;-1.5;69.0
53940;BME280;39850;43.324;21.916;2024-01-11T20:00:13;998.0;;;-0.1;63.0
53940;BME280;39850;43.324;21.916;2024-01-11T20:04:50;998.0;;;-0.1;63.0
53940;BME280;39850;43.324;21.916;2024-01-11T20:09:26;998.0;;;-0.2;64.0
53940;BME280;39850;43.324;21.916;2024-01-11T20:14:03;998.0;;;-0.2;64.0
53940;BME280;39850;43.324;21.916;2024-01-11T20:18:40;998.0;;;-0.2;64.0
53940;BME280;39850;43.324;21.916;2024-01-11T20:23:16;998.0;;;-0.2;64.0
53940;BME280;39850;43.324;21.916;2024-01-11T20:27:53;998.0;;;-0.2;64.0
53940;BME280;39850;43.324;21.916;2024-01-11T20:32:30;998.0;;;-0.3;65.0
53940;BME280;39850;43.324;21.916;2024-01-11T20:37:06;998.0;;;-0.3;65.0
53940;BME280;39850;43.324;21.916;2024-01-11T21:09:27;998.0;;;-3.6;80.0
53940;BME280;39850;43.324;21.916;2024-01-11T21:14:04;998.0;;;-3.6;80.0
53940;BME280;39850;43.324;21.916;2024-01-11T21:18:40;998.0;;;-3.2;79.0
53940;BME280;39850;43.324;21.916;2024-01-11T21:23:16;998.0;;;-3.2;79.0
53940;BME280;39850;43.324;21.916;2024-01-11T21:27:53;998.0;;;-3.2;79.0
53940;BME280;39850;43.324;21.916;2024-01-11T21:32:29;998.0;;;-2.8;78.0
53940;BME280;39850;43.324;21.916;2024-01-11T21:37:05;998.0;;;-2.8;78.0
53940;BME280;39850;43.324;21.916;2024-01-11T21:41:42;998.0;;;-2.3;76.0
53940;BME280;39850;43.324;21.916;2024-01-11T21:46:19;998.0;;;-2.3;76.0
53940;BME280;39850;43.324;21.916;2024-01-11T21:50:55;998.0;;;-1.9;74.0
53940;BME280;39850;43.324;21.916;2024-01-11T21:55:31;998.0;;;-1.9;74.0
53940;BME280;39850;43.324;21.916;2024-01-11T22:41:40;998.0;;;-3.7;82.0
53940;BME280;39850;43.324;21.916;2024-01-11T22:46:17;998.0;;;-3.7;82.0
53940;BME280;39850;43.324;21.916;2024-01-11T22:50:53;998.0;;;-3.7;81.0
53940;BME280;39850;43.324;21.916;2024-01-11T22:55:30;998.0;;;-3.7;81.0
53940;BME280;39850;43.324;21.916;2024-01-11T23:00:10;998.0;;;-3.7;81.0
53940;BME280;39850;43.324;21.916;2024-01-11T23:04:47;998.0;;;-3.7;81.0
53940;BME280;39850;43.324;21.916;2024-01-11T23:09:27;998.0;;;-3.7;80.0
53940;BME280;39850;43.324;21.916;2024-01-11T23:14:04;998.0;;;-3.7;80.0
53940;BME280;39850;43.324;21.916;2024-01-11T23:50:53;998.0;;;-2.6;80.0
53940;BME280;39850;43.324;21.916;2024-01-11T23:55:30;998.0;;;-2.6;80.0
